sensor_id;sensor_type;location;lat;lon;timestamp;pressure;altitude;pressure_sealevel;temperature;humidity
47815;BME280;33579;50.058;18.130;2023-04-29T00:00:55;98985.44;;;12.53;92.18
47815;BME280;33579;50.058;18.130;2023-04-29T00:01:56;98983.59;;;12.53;91.98
47815;BME280;33579;50.058;18.130;2023-04-29T00:02:58;98974.88;;;12.53;92.28
47815;BME280;33579;50.058;18.130;2023-04-29T00:04:00;98983.34;;;12.56;91.89
47815;BME280;33579;50.058;18.130;2023-04-29T00:05:02;98976.41;;;12.55;92.55
47815;BME280;33579;50.058;18.130;2023-04-29T00:06:04;98979.19;;;12.54;92.60
47815;BME280;33579;50.058;18.130;2023-04-29T00:07:06;98974.75;;;12.54;92.73
47815;BME280;33579;50.058;18.130;2023-04-29T00:08:07;98974.22;;;12.50;93.26
47815;BME280;33579;50.058;18.130;2023-04-29T00:09:09;98970.06;;;12.48;93.38
47815;BME280;33579;50.058;18.130;2023-04-29T00:10:10;98970.72;;;12.50;93.10
47815;BME280;33579;50.058;18.130;2023-04-29T00:11:12;98971.56;;;12.50;93.35
47815;BME280;33579;50.058;18.130;2023-04-29T00:12:13;98966.13;;;12.52;93.20
47815;BME280;33579;50.058;18.130;2023-04-29T00:13:15;98970.72;;;12.50;92.92
47815;BME280;33579;50.058;18.130;2023-04-29T00:14:17;98966.53;;;12.39;93.44
47815;BME280;33579;50.058;18.130;2023-04-29T00:15:18;98973.59;;;12.39;93.62
47815;BME280;33579;50.058;18.130;2023-04-29T00:16:20;98970.44;;;12.35;94.01
47815;BME280;33579;50.058;18.130;2023-04-29T00:17:21;98973.38;;;12.32;94.48
47815;BME280;33579;50.058;18.130;2023-04-29T00:18:23;98959.91;;;12.35;94.44
47815;BME280;33579;50.058;18.130;2023-04-29T00:19:25;98965.84;;;12.37;94.44
47815;BME280;33579;50.058;18.130;2023-04-29T00:20:26;98976.00;;;12.32;95.10
47815;BME280;33579;50.058;18.130;2023-04-29T00:21:28;98970.38;;;12.27;95.11
47815;BME280;33579;50.058;18.130;2023-04-29T00:22:29;98971.19;;;12.27;95.44
47815;BME280;33579;50.058;18.130;2023-04-29T00:23:32;98968.47;;;12.19;95.71
47815;BME280;33579;50.058;18.130;2023-04-29T00:24:34;98972.91;;;12.18;95.70
47815;BME280;33579;50.058;18.130;2023-04-29T00:25:35;98969.06;;;12.13;95.79
47815;BME280;33579;50.058;18.130;2023-04-29T00:26:37;98966.13;;;12.16;96.35
47815;BME280;33579;50.058;18.130;2023-04-29T00:27:38;98962.38;;;12.18;96.28
47815;BME280;33579;50.058;18.130;2023-04-29T00:28:40;98958.22;;;12.16;96.46
47815;BME280;33579;50.058;18.130;2023-04-29T00:29:42;98963.47;;;12.16;97.03
47815;BME280;33579;50.058;18.130;2023-04-29T00:30:43;98966.81;;;12.18;96.80
47815;BME280;33579;50.058;18.130;2023-04-29T00:31:45;98956.72;;;12.13;96.74
47815;BME280;33579;50.058;18.130;2023-04-29T00:32:46;98967.63;;;12.18;96.80
47815;BME280;33579;50.058;18.130;2023-04-29T00:33:48;98961.38;;;12.19;96.57
47815;BME280;33579;50.058;18.130;2023-04-29T00:34:50;98961.91;;;12.23;96.46
47815;BME280;33579;50.058;18.130;2023-04-29T00:35:51;98964.69;;;12.21;97.16
47815;BME280;33579;50.058;18.130;2023-04-29T00:36:53;98954.16;;;12.21;97.20
47815;BME280;33579;50.058;18.130;2023-04-29T00:37:54;98957.31;;;12.25;97.62
47815;BME280;33579;50.058;18.130;2023-04-29T00:38:56;98954.00;;;12.23;97.95
47815;BME280;33579;50.058;18.130;2023-04-29T00:39:57;98955.84;;;12.22;98.11
47815;BME280;33579;50.058;18.130;2023-04-29T00:40:59;98955.66;;;12.24;98.26
47815;BME280;33579;50.058;18.130;2023-04-29T00:42:01;98947.75;;;12.24;98.13
47815;BME280;33579;50.058;18.130;2023-04-29T00:43:03;98944.97;;;12.26;97.97
47815;BME280;33579;50.058;18.130;2023-04-29T00:44:04;98948.28;;;12.28;97.75
47815;BME280;33579;50.058;18.130;2023-04-29T00:45:07;98944.66;;;12.29;96.78
47815;BME280;33579;50.058;18.130;2023-04-29T00:46:09;98945.94;;;12.25;96.55
47815;BME280;33579;50.058;18.130;2023-04-29T00:47:11;98946.47;;;12.28;96.59
47815;BME280;33579;50.058;18.130;2023-04-29T00:48:13;98946.00;;;12.33;96.45
47815;BME280;33579;50.058;18.130;2023-04-29T00:49:14;98944.06;;;12.35;96.06
47815;BME280;33579;50.058;18.130;2023-04-29T00:50:16;98950.25;;;12.44;95.74
47815;BME280;33579;50.058;18.130;2023-04-29T00:51:18;98950.69;;;12.39;95.54
47815;BME280;33579;50.058;18.130;2023-04-29T00:52:20;98952.66;;;12.37;96.12
47815;BME280;33579;50.058;18.130;2023-04-29T00:53:22;98955.00;;;12.40;96.55
47815;BME280;33579;50.058;18.130;2023-04-29T00:54:24;98949.25;;;12.45;96.33
47815;BME280;33579;50.058;18.130;2023-04-29T00:55:27;98956.56;;;12.51;95.81
47815;BME280;33579;50.058;18.130;2023-04-29T00:56:30;98951.44;;;12.49;95.64
47815;BME280;33579;50.058;18.130;2023-04-29T00:57:33;98951.59;;;12.48;95.58
47815;BME280;33579;50.058;18.130;2023-04-29T00:58:34;98949.63;;;12.50;95.75
47815;BME280;33579;50.058;18.130;2023-04-29T00:59:36;98947.66;;;12.52;95.41
47815;BME280;33579;50.058;18.130;2023-04-29T01:00:38;98954.13;;;12.58;95.28
47815;BME280;33579;50.058;18.130;2023-04-29T01:01:41;98948.72;;;12.59;95.10
47815;BME280;33579;50.058;18.130;2023-04-29T01:02:44;98943.97;;;12.63;95.06
47815;BME280;33579;50.058;18.130;2023-04-29T01:03:46;98946.28;;;12.66;94.70
47815;BME280;33579;50.058;18.130;2023-04-29T01:04:48;98945.16;;;12.69;94.58
47815;BME280;33579;50.058;18.130;2023-04-29T01:06:07;98947.94;;;12.67;94.17
47815;BME280;33579;50.058;18.130;2023-04-29T01:07:18;98951.44;;;12.68;94.43
47815;BME280;33579;50.058;18.130;2023-04-29T01:08:42;98945.00;;;12.70;94.13
47815;BME280;33579;50.058;18.130;2023-04-29T01:10:05;98947.47;;;12.72;93.98
47815;BME280;33579;50.058;18.130;2023-04-29T01:11:11;98945.53;;;12.74;94.18
47815;BME280;33579;50.058;18.130;2023-04-29T01:12:20;98946.34;;;12.74;94.52
47815;BME280;33579;50.058;18.130;2023-04-29T01:13:34;98952.63;;;12.73;94.15
47815;BME280;33579;50.058;18.130;2023-04-29T01:14:42;98946.97;;;12.68;94.11
47815;BME280;33579;50.058;18.130;2023-04-29T01:16:00;98946.66;;;12.71;93.72
47815;BME280;33579;50.058;18.130;2023-04-29T01:17:06;98945.84;;;12.71;94.09
47815;BME280;33579;50.058;18.130;2023-04-29T01:19:38;98939.03;;;12.68;94.31
47815;BME280;33579;50.058;18.130;2023-04-29T01:20:39;98950.91;;;12.64;94.61
47815;BME280;33579;50.058;18.130;2023-04-29T01:21:46;98944.94;;;12.62;94.36
47815;BME280;33579;50.058;18.130;2023-04-29T01:22:48;98948.25;;;12.64;94.61
47815;BME280;33579;50.058;18.130;2023-04-29T01:23:50;98946.44;;;12.64;94.61
47815;BME280;33579;50.058;18.130;2023-04-29T01:24:51;98941.00;;;12.66;94.36
47815;BME280;33579;50.058;18.130;2023-04-29T01:25:53;98939.50;;;12.63;94.57
47815;BME280;33579;50.058;18.130;2023-04-29T01:27:41;98946.66;;;12.71;94.72
47815;BME280;33579;50.058;18.130;2023-04-29T01:29:21;98946.50;;;12.73;94.50
47815;BME280;33579;50.058;18.130;2023-04-29T01:30:33;98948.78;;;12.68;94.60
47815;BME280;33579;50.058;18.130;2023-04-29T01:31:48;98935.59;;;12.68;94.46
47815;BME280;33579;50.058;18.130;2023-04-29T01:33:16;98943.19;;;12.71;94.64
47815;BME280;33579;50.058;18.130;2023-04-29T01:34:38;98940.19;;;12.65;96.21
47815;BME280;33579;50.058;18.130;2023-04-29T01:35:55;98946.91;;;12.60;97.45
47815;BME280;33579;50.058;18.130;2023-04-29T01:37:36;98951.03;;;12.62;97.40
47815;BME280;33579;50.058;18.130;2023-04-29T01:38:52;98944.41;;;12.58;98.38
47815;BME280;33579;50.058;18.130;2023-04-29T01:40:04;98948.72;;;12.59;98.37
47815;BME280;33579;50.058;18.130;2023-04-29T01:41:17;98943.28;;;12.61;98.21
47815;BME280;33579;50.058;18.130;2023-04-29T01:42:36;98938.81;;;12.61;98.47
47815;BME280;33579;50.058;18.130;2023-04-29T01:43:47;98943.13;;;12.62;97.90
47815;BME280;33579;50.058;18.130;2023-04-29T01:44:56;98939.66;;;12.62;97.89
47815;BME280;33579;50.058;18.130;2023-04-29T01:46:01;98939.50;;;12.63;97.57
47815;BME280;33579;50.058;18.130;2023-04-29T01:47:04;98934.75;;;12.67;97.16
47815;BME280;33579;50.058;18.130;2023-04-29T01:48:13;98938.00;;;12.61;97.12
47815;BME280;33579;50.058;18.130;2023-04-29T01:49:24;98942.13;;;12.63;97.25
47815;BME280;33579;50.058;18.130;2023-04-29T01:50:26;98942.44;;;12.60;97.30
47815;BME280;33579;50.058;18.130;2023-04-29T01:51:33;98942.59;;;12.59;97.22
47815;BME280;33579;50.058;18.130;2023-04-29T01:52:35;98941.09;;;12.56;97.26
47815;BME280;33579;50.058;18.130;2023-04-29T01:53:36;98942.09;;;12.55;96.85
47815;BME280;33579;50.058;18.130;2023-04-29T01:54:38;98942.53;;;12.50;97.07
47815;BME280;33579;50.058;18.130;2023-04-29T01:55:40;98945.00;;;12.52;97.07
47815;BME280;33579;50.058;18.130;2023-04-29T01:57:01;98943.06;;;12.54;97.02
47815;BME280;33579;50.058;18.130;2023-04-29T01:58:29;98936.97;;;12.54;96.89
47815;BME280;33579;50.058;18.130;2023-04-29T01:59:56;98932.97;;;12.49;96.94
47815;BME280;33579;50.058;18.130;2023-04-29T02:01:18;98936.06;;;12.45;97.36
47815;BME280;33579;50.058;18.130;2023-04-29T02:02:20;98941.50;;;12.43;97.65
47815;BME280;33579;50.058;18.130;2023-04-29T02:03:30;98934.19;;;12.37;98.11
47815;BME280;33579;50.058;18.130;2023-04-29T02:04:34;98934.66;;;12.32;98.87
47815;BME280;33579;50.058;18.130;2023-04-29T02:05:36;98934.25;;;12.27;98.89
47815;BME280;33579;50.058;18.130;2023-04-29T02:06:38;98934.97;;;12.29;99.25
47815;BME280;33579;50.058;18.130;2023-04-29T02:07:39;98931.16;;;12.32;99.27
47815;BME280;33579;50.058;18.130;2023-04-29T02:08:41;98934.47;;;12.34;98.77
47815;BME280;33579;50.058;18.130;2023-04-29T02:09:42;98929.06;;;12.35;98.91
47815;BME280;33579;50.058;18.130;2023-04-29T02:10:56;98927.94;;;12.38;98.89
47815;BME280;33579;50.058;18.130;2023-04-29T02:12:10;98922.66;;;12.38;99.32
47815;BME280;33579;50.058;18.130;2023-04-29T02:13:12;98926.63;;;12.42;99.27
47815;BME280;33579;50.058;18.130;2023-04-29T02:14:14;98925.66;;;12.43;99.34
47815;BME280;33579;50.058;18.130;2023-04-29T02:15:16;98919.72;;;12.41;99.60
47815;BME280;33579;50.058;18.130;2023-04-29T02:16:18;98927.63;;;12.41;99.89
47815;BME280;33579;50.058;18.130;2023-04-29T02:17:35;98917.53;;;12.36;100.00
47815;BME280;33579;50.058;18.130;2023-04-29T02:18:37;98918.66;;;12.34;100.00
47815;BME280;33579;50.058;18.130;2023-04-29T02:19:39;98917.97;;;12.32;100.00
47815;BME280;33579;50.058;18.130;2023-04-29T02:20:41;98921.59;;;12.31;100.00
47815;BME280;33579;50.058;18.130;2023-04-29T02:21:42;98922.56;;;12.30;100.00
47815;BME280;33579;50.058;18.130;2023-04-29T02:22:44;98918.16;;;12.30;100.00
47815;BME280;33579;50.058;18.130;2023-04-29T02:23:45;98916.50;;;12.29;100.00
47815;BME280;33579;50.058;18.130;2023-04-29T02:24:47;98920.38;;;12.25;100.00
47815;BME280;33579;50.058;18.130;2023-04-29T02:25:49;98922.66;;;12.20;100.00
47815;BME280;33579;50.058;18.130;2023-04-29T02:26:50;98913.78;;;12.21;100.00
47815;BME280;33579;50.058;18.130;2023-04-29T02:27:52;98919.72;;;12.23;100.00
47815;BME280;33579;50.058;18.130;2023-04-29T02:28:54;98918.91;;;12.22;100.00
47815;BME280;33579;50.058;18.130;2023-04-29T02:29:56;98916.09;;;12.24;100.00
47815;BME280;33579;50.058;18.130;2023-04-29T02:30:58;98904.56;;;12.25;100.00
47815;BME280;33579;50.058;18.130;2023-04-29T02:32:00;98914.81;;;12.28;100.00
47815;BME280;33579;50.058;18.130;2023-04-29T02:33:02;98908.25;;;12.32;100.00
47815;BME280;33579;50.058;18.130;2023-04-29T02:34:04;98914.22;;;12.34;100.00
47815;BME280;33579;50.058;18.130;2023-04-29T02:35:08;98919.03;;;12.39;100.00
47815;BME280;33579;50.058;18.130;2023-04-29T02:36:09;98915.56;;;12.39;100.00
47815;BME280;33579;50.058;18.130;2023-04-29T02:37:11;98921.00;;;12.37;100.00
47815;BME280;33579;50.058;18.130;2023-04-29T02:38:13;98917.06;;;12.41;100.00
47815;BME280;33579;50.058;18.130;2023-04-29T02:39:15;98914.28;;;12.43;100.00
47815;BME280;33579;50.058;18.130;2023-04-29T02:40:16;98914.44;;;12.41;100.00
47815;BME280;33579;50.058;18.130;2023-04-29T02:41:18;98911.47;;;12.44;100.00
47815;BME280;33579;50.058;18.130;2023-04-29T02:42:21;98901.25;;;12.41;100.00
47815;BME280;33579;50.058;18.130;2023-04-29T02:43:23;98908.56;;;12.47;100.00
47815;BME280;33579;50.058;18.130;2023-04-29T02:44:24;98909.22;;;12.49;100.00
47815;BME280;33579;50.058;18.130;2023-04-29T02:45:26;98903.88;;;12.41;100.00
47815;BME280;33579;50.058;18.130;2023-04-29T02:46:28;98902.22;;;12.40;100.00
47815;BME280;33579;50.058;18.130;2023-04-29T02:47:29;98904.13;;;12.30;100.00
47815;BME280;33579;50.058;18.130;2023-04-29T02:48:31;98903.59;;;12.26;100.00
47815;BME280;33579;50.058;18.130;2023-04-29T02:49:33;98905.00;;;12.20;100.00
47815;BME280;33579;50.058;18.130;2023-04-29T02:50:34;98909.31;;;12.21;100.00
47815;BME280;33579;50.058;18.130;2023-04-29T02:51:37;98902.38;;;12.20;100.00
47815;BME280;33579;50.058;18.130;2023-04-29T02:52:39;98901.34;;;12.13;100.00
47815;BME280;33579;50.058;18.130;2023-04-29T02:53:40;98909.72;;;12.08;100.00
47815;BME280;33579;50.058;18.130;2023-04-29T02:54:42;98911.81;;;12.05;100.00
47815;BME280;33579;50.058;18.130;2023-04-29T02:55:44;98910.69;;;12.07;100.00
47815;BME280;33579;50.058;18.130;2023-04-29T02:56:45;98910.25;;;12.12;100.00
47815;BME280;33579;50.058;18.130;2023-04-29T02:57:47;98909.41;;;12.12;100.00
47815;BME280;33579;50.058;18.130;2023-04-29T02:58:48;98902.16;;;12.14;100.00
47815;BME280;33579;50.058;18.130;2023-04-29T02:59:50;98907.28;;;12.15;100.00
47815;BME280;33579;50.058;18.130;2023-04-29T03:00:52;98909.47;;;12.20;100.00
47815;BME280;33579;50.058;18.130;2023-04-29T03:01:53;98911.66;;;12.25;100.00
47815;BME280;33579;50.058;18.130;2023-04-29T03:02:55;98902.78;;;12.26;100.00
47815;BME280;33579;50.058;18.130;2023-04-29T03:03:57;98904.13;;;12.30;100.00
47815;BME280;33579;50.058;18.130;2023-04-29T03:04:59;98901.63;;;12.28;100.00
47815;BME280;33579;50.058;18.130;2023-04-29T03:06:00;98899.28;;;12.25;100.00
47815;BME280;33579;50.058;18.130;2023-04-29T03:07:02;98905.72;;;12.22;100.00
47815;BME280;33579;50.058;18.130;2023-04-29T03:08:03;98900.59;;;12.21;100.00
47815;BME280;33579;50.058;18.130;2023-04-29T03:09:06;98900.38;;;12.14;100.00
47815;BME280;33579;50.058;18.130;2023-04-29T03:10:08;98892.91;;;12.09;100.00
47815;BME280;33579;50.058;18.130;2023-04-29T03:11:12;98891.97;;;12.01;100.00
47815;BME280;33579;50.058;18.130;2023-04-29T03:12:13;98885.94;;;11.90;100.00
47815;BME280;33579;50.058;18.130;2023-04-29T03:13:15;98887.22;;;11.86;100.00
47815;BME280;33579;50.058;18.130;2023-04-29T03:14:18;98890.00;;;11.85;100.00
47815;BME280;33579;50.058;18.130;2023-04-29T03:15:21;98885.03;;;11.81;100.00
47815;BME280;33579;50.058;18.130;2023-04-29T03:16:24;98885.84;;;11.82;100.00
47815;BME280;33579;50.058;18.130;2023-04-29T03:17:26;98880.03;;;11.78;100.00
47815;BME280;33579;50.058;18.130;2023-04-29T03:18:27;98878.47;;;11.67;100.00
47815;BME280;33579;50.058;18.130;2023-04-29T03:19:29;98883.19;;;11.64;100.00
47815;BME280;33579;50.058;18.130;2023-04-29T03:20:30;98882.75;;;11.69;100.00
47815;BME280;33579;50.058;18.130;2023-04-29T03:21:35;98886.22;;;11.69;100.00
47815;BME280;33579;50.058;18.130;2023-04-29T03:22:37;98887.22;;;11.68;100.00
47815;BME280;33579;50.058;18.130;2023-04-29T03:23:38;98883.28;;;11.72;100.00
47815;BME280;33579;50.058;18.130;2023-04-29T03:24:41;98879.38;;;11.76;100.00
47815;BME280;33579;50.058;18.130;2023-04-29T03:25:42;98880.66;;;11.72;100.00
47815;BME280;33579;50.058;18.130;2023-04-29T03:26:44;98879.13;;;11.70;100.00
47815;BME280;33579;50.058;18.130;2023-04-29T03:27:46;98883.72;;;11.67;100.00
47815;BME280;33579;50.058;18.130;2023-04-29T03:28:47;98882.06;;;11.66;100.00
47815;BME280;33579;50.058;18.130;2023-04-29T03:29:49;98886.38;;;11.67;100.00
47815;BME280;33579;50.058;18.130;2023-04-29T03:30:51;98884.41;;;11.70;100.00
47815;BME280;33579;50.058;18.130;2023-04-29T03:31:53;98886.38;;;11.67;100.00
47815;BME280;33579;50.058;18.130;2023-04-29T03:32:54;98875.00;;;11.67;100.00
47815;BME280;33579;50.058;18.130;2023-04-29T03:33:56;98884.25;;;11.71;100.00
47815;BME280;33579;50.058;18.130;2023-04-29T03:34:58;98886.06;;;11.71;100.00
47815;BME280;33579;50.058;18.130;2023-04-29T03:36:09;98891.06;;;11.74;100.00
47815;BME280;33579;50.058;18.130;2023-04-29T03:37:46;98887.44;;;11.75;100.00
47815;BME280;33579;50.058;18.130;2023-04-29T03:38:57;98895.19;;;11.76;100.00
47815;BME280;33579;50.058;18.130;2023-04-29T03:39:59;98893.06;;;11.80;100.00
47815;BME280;33579;50.058;18.130;2023-04-29T03:41:01;98892.09;;;11.81;100.00
47815;BME280;33579;50.058;18.130;2023-04-29T03:42:04;98886.00;;;11.80;100.00
47815;BME280;33579;50.058;18.130;2023-04-29T03:43:06;98895.56;;;11.81;100.00
47815;BME280;33579;50.058;18.130;2023-04-29T03:44:08;98893.44;;;11.85;100.00
47815;BME280;33579;50.058;18.130;2023-04-29T03:45:10;98891.22;;;11.90;100.00
47815;BME280;33579;50.058;18.130;2023-04-29T03:46:11;98887.72;;;11.90;100.00
47815;BME280;33579;50.058;18.130;2023-04-29T03:47:13;98891.06;;;11.92;100.00
47815;BME280;33579;50.058;18.130;2023-04-29T03:48:15;98883.00;;;11.93;100.00
47815;BME280;33579;50.058;18.130;2023-04-29T03:49:16;98892.78;;;12.01;100.00
47815;BME280;33579;50.058;18.130;2023-04-29T03:50:18;98892.28;;;11.98;100.00
47815;BME280;33579;50.058;18.130;2023-04-29T03:51:24;98895.72;;;11.98;100.00
47815;BME280;33579;50.058;18.130;2023-04-29T03:52:33;98892.78;;;12.01;100.00
47815;BME280;33579;50.058;18.130;2023-04-29T03:53:38;98891.13;;;12.00;100.00
47815;BME280;33579;50.058;18.130;2023-04-29T03:54:40;98899.59;;;12.04;100.00
47815;BME280;33579;50.058;18.130;2023-04-29T03:55:42;98900.13;;;12.07;100.00
47815;BME280;33579;50.058;18.130;2023-04-29T03:56:44;98899.75;;;12.02;100.00
47815;BME280;33579;50.058;18.130;2023-04-29T03:57:46;98897.38;;;11.99;100.00
47815;BME280;33579;50.058;18.130;2023-04-29T03:58:53;98903.59;;;12.08;100.00
47815;BME280;33579;50.058;18.130;2023-04-29T03:59:56;98902.31;;;12.12;100.00
47815;BME280;33579;50.058;18.130;2023-04-29T04:00:58;98899.53;;;12.14;100.00
47815;BME280;33579;50.058;18.130;2023-04-29T04:02:09;98907.81;;;12.19;100.00
47815;BME280;33579;50.058;18.130;2023-04-29T04:03:11;98905.00;;;12.20;100.00
47815;BME280;33579;50.058;18.130;2023-04-29T04:04:13;98900.06;;;12.17;100.00
47815;BME280;33579;50.058;18.130;2023-04-29T04:05:18;98899.75;;;12.20;100.00
47815;BME280;33579;50.058;18.130;2023-04-29T04:06:23;98901.56;;;12.20;100.00
47815;BME280;33579;50.058;18.130;2023-04-29T04:07:26;98900.44;;;12.22;100.00
47815;BME280;33579;50.058;18.130;2023-04-29T04:08:56;98900.13;;;12.26;100.00
47815;BME280;33579;50.058;18.130;2023-04-29T04:10:03;98899.59;;;12.22;100.00
47815;BME280;33579;50.058;18.130;2023-04-29T04:11:05;98908.50;;;12.21;100.00
47815;BME280;33579;50.058;18.130;2023-04-29T04:12:10;98907.97;;;12.17;100.00
47815;BME280;33579;50.058;18.130;2023-04-29T04:13:12;98906.16;;;12.18;100.00
47815;BME280;33579;50.058;18.130;2023-04-29T04:14:13;98907.66;;;12.20;100.00
47815;BME280;33579;50.058;18.130;2023-04-29T04:15:15;98906.00;;;12.19;100.00
47815;BME280;33579;50.058;18.130;2023-04-29T04:16:17;98913.25;;;12.17;100.00
47815;BME280;33579;50.058;18.130;2023-04-29T04:17:18;98920.34;;;12.17;100.00
47815;BME280;33579;50.058;18.130;2023-04-29T04:18:20;98915.34;;;12.14;100.00
47815;BME280;33579;50.058;18.130;2023-04-29T04:19:21;98914.97;;;12.08;100.00
47815;BME280;33579;50.058;18.130;2023-04-29T04:20:23;98921.47;;;12.14;100.00
47815;BME280;33579;50.058;18.130;2023-04-29T04:21:25;98919.81;;;12.13;100.00
47815;BME280;33579;50.058;18.130;2023-04-29T04:22:38;98922.56;;;12.12;100.00
47815;BME280;33579;50.058;18.130;2023-04-29T04:23:57;98923.56;;;12.11;100.00
47815;BME280;33579;50.058;18.130;2023-04-29T04:24:58;98921.28;;;12.16;100.00
47815;BME280;33579;50.058;18.130;2023-04-29T04:26:00;98916.84;;;12.16;100.00
47815;BME280;33579;50.058;18.130;2023-04-29T04:27:20;98924.31;;;12.21;100.00
47815;BME280;33579;50.058;18.130;2023-04-29T04:28:22;98921.22;;;12.26;100.00
47815;BME280;33579;50.058;18.130;2023-04-29T04:29:32;98921.78;;;12.29;100.00
47815;BME280;33579;50.058;18.130;2023-04-29T04:30:41;98916.00;;;12.34;100.00
47815;BME280;33579;50.058;18.130;2023-04-29T04:31:42;98916.84;;;12.34;100.00
47815;BME280;33579;50.058;18.130;2023-04-29T04:32:48;98912.25;;;12.36;100.00
47815;BME280;33579;50.058;18.130;2023-04-29T04:33:50;98910.59;;;12.35;100.00
47815;BME280;33579;50.058;18.130;2023-04-29T04:34:52;98915.88;;;12.35;100.00
47815;BME280;33579;50.058;18.130;2023-04-29T04:35:53;98911.25;;;12.37;100.00
47815;BME280;33579;50.058;18.130;2023-04-29T04:36:55;98915.28;;;12.42;100.00
47815;BME280;33579;50.058;18.130;2023-04-29T04:37:57;98907.81;;;12.37;100.00
47815;BME280;33579;50.058;18.130;2023-04-29T04:38:58;98904.19;;;12.38;100.00
47815;BME280;33579;50.058;18.130;2023-04-29T04:40:00;98912.63;;;12.42;100.00
47815;BME280;33579;50.058;18.130;2023-04-29T04:41:05;98912.00;;;12.48;100.00
47815;BME280;33579;50.058;18.130;2023-04-29T04:42:09;98915.00;;;12.53;100.00
47815;BME280;33579;50.058;18.130;2023-04-29T04:43:11;98914.72;;;12.56;100.00
47815;BME280;33579;50.058;18.130;2023-04-29T04:44:14;98911.91;;;12.58;100.00
47815;BME280;33579;50.058;18.130;2023-04-29T04:45:36;98911.75;;;12.59;100.00
47815;BME280;33579;50.058;18.130;2023-04-29T04:46:38;98909.59;;;12.55;100.00
47815;BME280;33579;50.058;18.130;2023-04-29T04:47:46;98906.13;;;12.54;100.00
47815;BME280;33579;50.058;18.130;2023-04-29T04:48:55;98907.78;;;12.55;100.00
47815;BME280;33579;50.058;18.130;2023-04-29T04:49:56;98901.66;;;12.55;100.00
47815;BME280;33579;50.058;18.130;2023-04-29T04:50:58;98908.91;;;12.53;100.00
47815;BME280;33579;50.058;18.130;2023-04-29T04:51:59;98898.22;;;12.54;100.00
47815;BME280;33579;50.058;18.130;2023-04-29T04:53:01;98899.34;;;12.51;100.00
47815;BME280;33579;50.058;18.130;2023-04-29T04:54:21;98897.84;;;12.49;100.00
47815;BME280;33579;50.058;18.130;2023-04-29T04:55:26;98900.16;;;12.52;100.00
47815;BME280;33579;50.058;18.130;2023-04-29T04:56:28;98892.25;;;12.52;100.00
47815;BME280;33579;50.058;18.130;2023-04-29T04:57:30;98897.38;;;12.54;100.00
47815;BME280;33579;50.058;18.130;2023-04-29T04:58:34;98894.22;;;12.50;100.00
47815;BME280;33579;50.058;18.130;2023-04-29T04:59:37;98892.03;;;12.45;100.00
47815;BME280;33579;50.058;18.130;2023-04-29T05:00:43;98890.38;;;12.44;100.00
47815;BME280;33579;50.058;18.130;2023-04-29T05:01:44;98893.84;;;12.45;100.00
47815;BME280;33579;50.058;18.130;2023-04-29T05:02:46;98892.03;;;12.45;100.00
47815;BME280;33579;50.058;18.130;2023-04-29T05:03:48;98886.59;;;12.47;100.00
47815;BME280;33579;50.058;18.130;2023-04-29T05:04:50;98890.59;;;12.51;100.00
47815;BME280;33579;50.058;18.130;2023-04-29T05:05:56;98892.72;;;12.47;100.00
47815;BME280;33579;50.058;18.130;2023-04-29T05:06:59;98892.88;;;12.46;100.00
47815;BME280;33579;50.058;18.130;2023-04-29T05:08:05;98885.75;;;12.46;100.00
47815;BME280;33579;50.058;18.130;2023-04-29T05:09:13;98891.22;;;12.45;100.00
47815;BME280;33579;50.058;18.130;2023-04-29T05:10:14;98897.84;;;12.49;100.00
47815;BME280;33579;50.058;18.130;2023-04-29T05:11:21;98891.13;;;12.55;100.00
47815;BME280;33579;50.058;18.130;2023-04-29T05:12:55;98898.88;;;12.56;100.00
47815;BME280;33579;50.058;18.130;2023-04-29T05:13:57;98892.63;;;12.57;100.00
47815;BME280;33579;50.058;18.130;2023-04-29T05:14:58;98890.66;;;12.59;100.00
47815;BME280;33579;50.058;18.130;2023-04-29T05:16:02;98886.44;;;12.67;100.00
47815;BME280;33579;50.058;18.130;2023-04-29T05:17:07;98887.56;;;12.64;100.00
47815;BME280;33579;50.058;18.130;2023-04-29T05:18:09;98890.53;;;12.69;100.00
47815;BME280;33579;50.058;18.130;2023-04-29T05:19:11;98886.91;;;12.70;100.00
47815;BME280;33579;50.058;18.130;2023-04-29T05:20:14;98889.28;;;12.73;100.00
47815;BME280;33579;50.058;18.130;2023-04-29T05:21:15;98886.84;;;12.80;100.00
47815;BME280;33579;50.058;18.130;2023-04-29T05:22:18;98892.63;;;12.84;100.00
47815;BME280;33579;50.058;18.130;2023-04-29T05:23:20;98895.94;;;12.86;100.00
47815;BME280;33579;50.058;18.130;2023-04-29T05:24:22;98895.47;;;12.90;100.00
47815;BME280;33579;50.058;18.130;2023-04-29T05:25:23;98893.19;;;12.96;100.00
47815;BME280;33579;50.058;18.130;2023-04-29T05:26:30;98889.41;;;12.98;100.00
47815;BME280;33579;50.058;18.130;2023-04-29T05:27:35;98886.72;;;12.90;100.00
47815;BME280;33579;50.058;18.130;2023-04-29T05:28:39;98892.66;;;12.92;100.00
47815;BME280;33579;50.058;18.130;2023-04-29T05:29:41;98895.47;;;12.90;100.00
47815;BME280;33579;50.058;18.130;2023-04-29T05:30:45;98899.13;;;12.98;100.00
47815;BME280;33579;50.058;18.130;2023-04-29T05:31:48;98898.53;;;13.04;100.00
47815;BME280;33579;50.058;18.130;2023-04-29T05:32:49;98898.81;;;13.01;100.00
47815;BME280;33579;50.058;18.130;2023-04-29T05:33:53;98895.38;;;13.00;100.00
47815;BME280;33579;50.058;18.130;2023-04-29T05:34:54;98898.00;;;13.00;100.00
47815;BME280;33579;50.058;18.130;2023-04-29T05:35:56;98893.06;;;13.05;100.00
47815;BME280;33579;50.058;18.130;2023-04-29T05:36:57;98895.03;;;13.03;100.00